sensor_id;sensor_type;location;lat;lon;timestamp;P1;durP1;ratioP1;P2;durP2;ratioP2
22924;SDS011;11628;51.072;3.712;2023-04-24T00:02:11;23.02;;;19.00;;
22924;SDS011;11628;51.072;3.712;2023-04-24T00:04:37;22.23;;;17.23;;
22924;SDS011;11628;51.072;3.712;2023-04-24T00:07:10;22.27;;;17.13;;
22924;SDS011;11628;51.072;3.712;2023-04-24T00:09:36;23.42;;;17.00;;
22924;SDS011;11628;51.072;3.712;2023-04-24T00:12:02;21.52;;;17.92;;
22924;SDS011;11628;51.072;3.712;2023-04-24T00:14:31;19.95;;;16.48;;
22924;SDS011;11628;51.072;3.712;2023-04-24T00:16:57;21.75;;;18.13;;
22924;SDS011;11628;51.072;3.712;2023-04-24T00:19:22;21.52;;;18.83;;
22924;SDS011;11628;51.072;3.712;2023-04-24T00:21:48;23.33;;;17.10;;
22924;SDS011;11628;51.072;3.712;2023-04-24T00:24:17;22.20;;;19.38;;
22924;SDS011;11628;51.072;3.712;2023-04-24T00:26:43;24.95;;;18.75;;
22924;SDS011;11628;51.072;3.712;2023-04-24T00:29:08;21.75;;;18.90;;
22924;SDS011;11628;51.072;3.712;2023-04-24T00:31:34;23.48;;;18.98;;
22924;SDS011;11628;51.072;3.712;2023-04-24T00:34:03;19.38;;;17.33;;
22924;SDS011;11628;51.072;3.712;2023-04-24T00:36:30;19.90;;;17.20;;
22924;SDS011;11628;51.072;3.712;2023-04-24T00:38:56;20.60;;;17.30;;
22924;SDS011;11628;51.072;3.712;2023-04-24T00:41:22;21.63;;;17.88;;
22924;SDS011;11628;51.072;3.712;2023-04-24T00:43:50;18.30;;;16.48;;
22924;SDS011;11628;51.072;3.712;2023-04-24T00:46:17;17.73;;;15.98;;
22924;SDS011;11628;51.072;3.712;2023-04-24T00:48:43;17.45;;;15.57;;
22924;SDS011;11628;51.072;3.712;2023-04-24T00:51:09;19.50;;;15.13;;
22924;SDS011;11628;51.072;3.712;2023-04-24T00:53:35;17.60;;;15.48;;
22924;SDS011;11628;51.072;3.712;2023-04-24T00:56:01;15.45;;;13.85;;
22924;SDS011;11628;51.072;3.712;2023-04-24T00:58:27;14.43;;;12.93;;
22924;SDS011;11628;51.072;3.712;2023-04-24T01:00:54;14.60;;;13.00;;
22924;SDS011;11628;51.072;3.712;2023-04-24T01:03:24;13.82;;;12.32;;
22924;SDS011;11628;51.072;3.712;2023-04-24T01:05:53;12.83;;;11.27;;
22924;SDS011;11628;51.072;3.712;2023-04-24T01:08:20;13.40;;;11.77;;
22924;SDS011;11628;51.072;3.712;2023-04-24T01:10:52;16.88;;;13.00;;
22924;SDS011;11628;51.072;3.712;2023-04-24T01:13:19;14.32;;;12.30;;
22924;SDS011;11628;51.072;3.712;2023-04-24T01:15:46;17.30;;;13.35;;
22924;SDS011;11628;51.072;3.712;2023-04-24T01:18:12;17.58;;;13.88;;
22924;SDS011;11628;51.072;3.712;2023-04-24T01:20:39;15.90;;;14.30;;
22924;SDS011;11628;51.072;3.712;2023-04-24T01:23:06;16.92;;;14.38;;
22924;SDS011;11628;51.072;3.712;2023-04-24T01:25:32;16.73;;;14.80;;
22924;SDS011;11628;51.072;3.712;2023-04-24T01:27:59;17.30;;;15.50;;
22924;SDS011;11628;51.072;3.712;2023-04-24T01:30:25;19.90;;;14.70;;
22924;SDS011;11628;51.072;3.712;2023-04-24T01:32:52;17.75;;;15.70;;
22924;SDS011;11628;51.072;3.712;2023-04-24T01:35:19;19.80;;;16.30;;
22924;SDS011;11628;51.072;3.712;2023-04-24T01:37:45;18.77;;;16.77;;
22924;SDS011;11628;51.072;3.712;2023-04-24T01:40:11;23.02;;;16.52;;
22924;SDS011;11628;51.072;3.712;2023-04-24T01:42:36;20.00;;;17.88;;
22924;SDS011;11628;51.072;3.712;2023-04-24T01:45:03;19.52;;;17.30;;
22924;SDS011;11628;51.072;3.712;2023-04-24T01:47:30;18.85;;;16.85;;
22924;SDS011;11628;51.072;3.712;2023-04-24T01:49:57;21.95;;;19.15;;
22924;SDS011;11628;51.072;3.712;2023-04-24T01:52:23;20.98;;;18.77;;
22924;SDS011;11628;51.072;3.712;2023-04-24T01:54:49;20.30;;;17.80;;
22924;SDS011;11628;51.072;3.712;2023-04-24T01:57:15;24.50;;;19.17;;
22924;SDS011;11628;51.072;3.712;2023-04-24T01:59:41;21.52;;;19.25;;
22924;SDS011;11628;51.072;3.712;2023-04-24T02:02:07;21.77;;;19.48;;
22924;SDS011;11628;51.072;3.712;2023-04-24T02:04:33;23.27;;;19.20;;
22924;SDS011;11628;51.072;3.712;2023-04-24T02:06:59;24.92;;;22.10;;
22924;SDS011;11628;51.072;3.712;2023-04-24T02:09:24;23.90;;;20.40;;
22924;SDS011;11628;51.072;3.712;2023-04-24T02:11:50;24.77;;;21.05;;
22924;SDS011;11628;51.072;3.712;2023-04-24T02:14:16;24.20;;;20.83;;
22924;SDS011;11628;51.072;3.712;2023-04-24T02:16:41;25.83;;;22.13;;
22924;SDS011;11628;51.072;3.712;2023-04-24T02:19:08;25.50;;;22.73;;
22924;SDS011;11628;51.072;3.712;2023-04-24T02:21:35;26.95;;;24.05;;
22924;SDS011;11628;51.072;3.712;2023-04-24T02:24:01;28.33;;;23.50;;
22924;SDS011;11628;51.072;3.712;2023-04-24T02:26:27;28.90;;;24.17;;
22924;SDS011;11628;51.072;3.712;2023-04-24T02:28:52;24.92;;;21.90;;
22924;SDS011;11628;51.072;3.712;2023-04-24T02:31:18;27.23;;;23.33;;
22924;SDS011;11628;51.072;3.712;2023-04-24T02:33:44;29.38;;;24.30;;
22924;SDS011;11628;51.072;3.712;2023-04-24T02:36:09;32.10;;;25.83;;
22924;SDS011;11628;51.072;3.712;2023-04-24T02:38:35;29.90;;;23.88;;
22924;SDS011;11628;51.072;3.712;2023-04-24T02:41:01;26.65;;;22.40;;
22924;SDS011;11628;51.072;3.712;2023-04-24T02:43:29;29.15;;;22.40;;
22924;SDS011;11628;51.072;3.712;2023-04-24T02:45:54;26.60;;;20.45;;
22924;SDS011;11628;51.072;3.712;2023-04-24T02:48:20;26.27;;;21.35;;
22924;SDS011;11628;51.072;3.712;2023-04-24T02:50:46;26.67;;;19.35;;
22924;SDS011;11628;51.072;3.712;2023-04-24T02:53:12;21.90;;;15.90;;
22924;SDS011;11628;51.072;3.712;2023-04-24T02:55:38;20.20;;;13.30;;
22924;SDS011;11628;51.072;3.712;2023-04-24T02:58:03;16.73;;;11.40;;
22924;SDS011;11628;51.072;3.712;2023-04-24T03:00:29;13.20;;;7.90;;
22924;SDS011;11628;51.072;3.712;2023-04-24T03:02:55;14.05;;;8.10;;
22924;SDS011;11628;51.072;3.712;2023-04-24T03:05:21;16.58;;;7.25;;
22924;SDS011;11628;51.072;3.712;2023-04-24T03:07:46;14.10;;;7.05;;
22924;SDS011;11628;51.072;3.712;2023-04-24T03:10:12;11.88;;;7.60;;
22924;SDS011;11628;51.072;3.712;2023-04-24T03:12:38;11.57;;;7.32;;
22924;SDS011;11628;51.072;3.712;2023-04-24T03:15:04;12.68;;;7.78;;
22924;SDS011;11628;51.072;3.712;2023-04-24T03:17:30;14.60;;;9.00;;
22924;SDS011;11628;51.072;3.712;2023-04-24T03:19:56;15.55;;;9.63;;
22924;SDS011;11628;51.072;3.712;2023-04-24T03:22:22;15.48;;;9.45;;
22924;SDS011;11628;51.072;3.712;2023-04-24T03:24:47;13.77;;;9.60;;
22924;SDS011;11628;51.072;3.712;2023-04-24T03:27:13;16.65;;;9.95;;
22924;SDS011;11628;51.072;3.712;2023-04-24T03:29:39;17.27;;;10.77;;
22924;SDS011;11628;51.072;3.712;2023-04-24T03:32:04;18.95;;;10.98;;
22924;SDS011;11628;51.072;3.712;2023-04-24T03:34:30;21.85;;;12.50;;
22924;SDS011;11628;51.072;3.712;2023-04-24T03:36:56;17.70;;;12.13;;
22924;SDS011;11628;51.072;3.712;2023-04-24T03:39:21;21.27;;;13.55;;
22924;SDS011;11628;51.072;3.712;2023-04-24T03:41:47;20.02;;;14.65;;
22924;SDS011;11628;51.072;3.712;2023-04-24T03:44:13;21.20;;;14.43;;
22924;SDS011;11628;51.072;3.712;2023-04-24T03:46:39;25.17;;;14.98;;
22924;SDS011;11628;51.072;3.712;2023-04-24T03:49:04;23.00;;;14.52;;
22924;SDS011;11628;51.072;3.712;2023-04-24T03:51:30;22.33;;;15.32;;
22924;SDS011;11628;51.072;3.712;2023-04-24T03:53:56;20.70;;;14.70;;
22924;SDS011;11628;51.072;3.712;2023-04-24T03:56:22;25.60;;;14.82;;
22924;SDS011;11628;51.072;3.712;2023-04-24T03:58:47;23.25;;;14.93;;
22924;SDS011;11628;51.072;3.712;2023-04-24T04:01:13;22.73;;;14.60;;
22924;SDS011;11628;51.072;3.712;2023-04-24T04:03:41;24.27;;;15.55;;
22924;SDS011;11628;51.072;3.712;2023-04-24T04:06:06;22.88;;;15.75;;
22924;SDS011;11628;51.072;3.712;2023-04-24T04:08:32;24.73;;;15.32;;
22924;SDS011;11628;51.072;3.712;2023-04-24T04:10:58;24.23;;;15.77;;
22924;SDS011;11628;51.072;3.712;2023-04-24T04:13:23;23.45;;;15.70;;
22924;SDS011;11628;51.072;3.712;2023-04-24T04:15:49;25.77;;;16.90;;
22924;SDS011;11628;51.072;3.712;2023-04-24T04:18:15;25.15;;;16.90;;
22924;SDS011;11628;51.072;3.712;2023-04-24T04:20:41;28.30;;;16.65;;
22924;SDS011;11628;51.072;3.712;2023-04-24T04:23:06;23.38;;;16.15;;
22924;SDS011;11628;51.072;3.712;2023-04-24T04:25:32;21.92;;;15.95;;
22924;SDS011;11628;51.072;3.712;2023-04-24T04:27:58;25.25;;;15.45;;
22924;SDS011;11628;51.072;3.712;2023-04-24T04:30:24;24.88;;;15.13;;
22924;SDS011;11628;51.072;3.712;2023-04-24T04:32:51;26.30;;;15.77;;
22924;SDS011;11628;51.072;3.712;2023-04-24T04:35:16;22.67;;;14.95;;
22924;SDS011;11628;51.072;3.712;2023-04-24T04:37:44;25.25;;;14.80;;
22924;SDS011;11628;51.072;3.712;2023-04-24T04:40:10;21.55;;;14.68;;
22924;SDS011;11628;51.072;3.712;2023-04-24T04:42:36;27.33;;;16.55;;
22924;SDS011;11628;51.072;3.712;2023-04-24T04:45:06;23.13;;;14.38;;
22924;SDS011;11628;51.072;3.712;2023-04-24T04:47:36;23.63;;;14.55;;
22924;SDS011;11628;51.072;3.712;2023-04-24T04:50:02;19.63;;;14.13;;
22924;SDS011;11628;51.072;3.712;2023-04-24T04:52:29;24.90;;;14.70;;
22924;SDS011;11628;51.072;3.712;2023-04-24T04:54:55;21.13;;;15.00;;
22924;SDS011;11628;51.072;3.712;2023-04-24T04:57:20;21.38;;;15.00;;
22924;SDS011;11628;51.072;3.712;2023-04-24T04:59:46;20.65;;;14.40;;
22924;SDS011;11628;51.072;3.712;2023-04-24T05:02:12;20.90;;;16.08;;
22924;SDS011;11628;51.072;3.712;2023-04-24T05:04:38;22.17;;;15.73;;
22924;SDS011;11628;51.072;3.712;2023-04-24T05:07:04;22.95;;;16.52;;
22924;SDS011;11628;51.072;3.712;2023-04-24T05:09:30;28.05;;;16.67;;
22924;SDS011;11628;51.072;3.712;2023-04-24T05:11:56;27.63;;;16.65;;
22924;SDS011;11628;51.072;3.712;2023-04-24T05:14:21;28.95;;;21.25;;
22924;SDS011;11628;51.072;3.712;2023-04-24T05:16:47;21.67;;;15.35;;
22924;SDS011;11628;51.072;3.712;2023-04-24T05:19:13;26.27;;;17.80;;
22924;SDS011;11628;51.072;3.712;2023-04-24T05:21:39;25.55;;;17.23;;
22924;SDS011;11628;51.072;3.712;2023-04-24T05:24:06;23.85;;;17.08;;
22924;SDS011;11628;51.072;3.712;2023-04-24T05:26:31;24.73;;;16.90;;
22924;SDS011;11628;51.072;3.712;2023-04-24T05:28:57;23.67;;;15.88;;
22924;SDS011;11628;51.072;3.712;2023-04-24T05:31:23;26.38;;;18.75;;
22924;SDS011;11628;51.072;3.712;2023-04-24T05:33:49;27.63;;;18.40;;
22924;SDS011;11628;51.072;3.712;2023-04-24T05:36:14;27.10;;;16.92;;
22924;SDS011;11628;51.072;3.712;2023-04-24T05:38:40;31.95;;;18.20;;
22924;SDS011;11628;51.072;3.712;2023-04-24T05:41:06;25.02;;;17.65;;
22924;SDS011;11628;51.072;3.712;2023-04-24T05:43:32;32.67;;;19.65;;
22924;SDS011;11628;51.072;3.712;2023-04-24T05:45:58;28.92;;;18.80;;
22924;SDS011;11628;51.072;3.712;2023-04-24T05:48:23;34.60;;;19.90;;
22924;SDS011;11628;51.072;3.712;2023-04-24T05:50:49;27.95;;;18.95;;
22924;SDS011;11628;51.072;3.712;2023-04-24T05:53:15;32.78;;;19.10;;
22924;SDS011;11628;51.072;3.712;2023-04-24T05:55:41;32.20;;;20.23;;
22924;SDS011;11628;51.072;3.712;2023-04-24T05:58:07;29.50;;;18.90;;
22924;SDS011;11628;51.072;3.712;2023-04-24T06:00:32;29.27;;;18.00;;
22924;SDS011;11628;51.072;3.712;2023-04-24T06:02:59;35.85;;;20.48;;
22924;SDS011;11628;51.072;3.712;2023-04-24T06:05:25;30.23;;;19.95;;
22924;SDS011;11628;51.072;3.712;2023-04-24T06:07:51;31.75;;;20.58;;
22924;SDS011;11628;51.072;3.712;2023-04-24T06:10:17;32.40;;;20.48;;
22924;SDS011;11628;51.072;3.712;2023-04-24T06:12:42;29.55;;;20.55;;
22924;SDS011;11628;51.072;3.712;2023-04-24T06:15:08;31.88;;;20.17;;
22924;SDS011;11628;51.072;3.712;2023-04-24T06:17:35;34.97;;;19.50;;
22924;SDS011;11628;51.072;3.712;2023-04-24T06:20:00;36.10;;;20.05;;
22924;SDS011;11628;51.072;3.712;2023-04-24T06:22:26;31.20;;;20.98;;
22924;SDS011;11628;51.072;3.712;2023-04-24T06:24:52;36.65;;;19.70;;
22924;SDS011;11628;51.072;3.712;2023-04-24T06:27:18;31.38;;;18.80;;
22924;SDS011;11628;51.072;3.712;2023-04-24T06:29:44;32.17;;;21.00;;
22924;SDS011;11628;51.072;3.712;2023-04-24T06:32:09;29.83;;;19.05;;
22924;SDS011;11628;51.072;3.712;2023-04-24T06:34:35;30.65;;;15.65;;
22924;SDS011;11628;51.072;3.712;2023-04-24T06:37:01;27.88;;;16.27;;
22924;SDS011;11628;51.072;3.712;2023-04-24T06:39:27;21.67;;;14.77;;
22924;SDS011;11628;51.072;3.712;2023-04-24T06:41:53;27.02;;;13.02;;
22924;SDS011;11628;51.072;3.712;2023-04-24T06:44:18;24.02;;;12.88;;
22924;SDS011;11628;51.072;3.712;2023-04-24T06:46:44;23.90;;;12.25;;
22924;SDS011;11628;51.072;3.712;2023-04-24T06:49:10;22.92;;;12.50;;
22924;SDS011;11628;51.072;3.712;2023-04-24T06:51:36;25.45;;;13.15;;
22924;SDS011;11628;51.072;3.712;2023-04-24T06:54:01;21.85;;;13.23;;
22924;SDS011;11628;51.072;3.712;2023-04-24T06:56:27;18.77;;;11.75;;
22924;SDS011;11628;51.072;3.712;2023-04-24T06:58:54;26.08;;;12.77;;
22924;SDS011;11628;51.072;3.712;2023-04-24T07:01:20;22.65;;;11.90;;
22924;SDS011;11628;51.072;3.712;2023-04-24T07:03:46;20.45;;;11.60;;
22924;SDS011;11628;51.072;3.712;2023-04-24T07:06:11;17.02;;;9.65;;
22924;SDS011;11628;51.072;3.712;2023-04-24T07:08:37;18.65;;;9.27;;
22924;SDS011;11628;51.072;3.712;2023-04-24T07:11:03;20.05;;;9.20;;
22924;SDS011;11628;51.072;3.712;2023-04-24T07:13:29;21.70;;;9.07;;
22924;SDS011;11628;51.072;3.712;2023-04-24T07:15:55;19.90;;;9.27;;
22924;SDS011;11628;51.072;3.712;2023-04-24T07:18:21;19.45;;;8.60;;
22924;SDS011;11628;51.072;3.712;2023-04-24T07:20:47;16.00;;;7.47;;
22924;SDS011;11628;51.072;3.712;2023-04-24T07:23:15;18.98;;;8.48;;
22924;SDS011;11628;51.072;3.712;2023-04-24T07:25:41;18.30;;;6.93;;
22924;SDS011;11628;51.072;3.712;2023-04-24T07:28:06;17.80;;;6.88;;
22924;SDS011;11628;51.072;3.712;2023-04-24T07:30:32;18.20;;;7.53;;
22924;SDS011;11628;51.072;3.712;2023-04-24T07:32:58;16.20;;;7.28;;
22924;SDS011;11628;51.072;3.712;2023-04-24T07:35:24;10.85;;;5.88;;
22924;SDS011;11628;51.072;3.712;2023-04-24T07:37:51;14.18;;;5.05;;
22924;SDS011;11628;51.072;3.712;2023-04-24T07:40:20;13.45;;;5.50;;
22924;SDS011;11628;51.072;3.712;2023-04-24T07:42:47;12.65;;;4.93;;
22924;SDS011;11628;51.072;3.712;2023-04-24T07:45:16;16.30;;;6.18;;
22924;SDS011;11628;51.072;3.712;2023-04-24T07:47:42;16.27;;;5.97;;
22924;SDS011;11628;51.072;3.712;2023-04-24T07:50:11;16.20;;;6.57;;
22924;SDS011;11628;51.072;3.712;2023-04-24T07:52:37;13.48;;;6.22;;
22924;SDS011;11628;51.072;3.712;2023-04-24T07:55:03;16.63;;;6.82;;
22924;SDS011;11628;51.072;3.712;2023-04-24T07:57:29;12.88;;;7.20;;
22924;SDS011;11628;51.072;3.712;2023-04-24T07:59:55;25.50;;;11.73;;
22924;SDS011;11628;51.072;3.712;2023-04-24T08:02:21;18.70;;;6.70;;
22924;SDS011;11628;51.072;3.712;2023-04-24T08:04:51;16.27;;;6.55;;
22924;SDS011;11628;51.072;3.712;2023-04-24T08:07:18;18.77;;;6.60;;
22924;SDS011;11628;51.072;3.712;2023-04-24T08:09:44;17.23;;;6.03;;
22924;SDS011;11628;51.072;3.712;2023-04-24T08:12:10;13.15;;;4.97;;
22924;SDS011;11628;51.072;3.712;2023-04-24T08:14:36;11.45;;;4.65;;
22924;SDS011;11628;51.072;3.712;2023-04-24T08:17:01;14.75;;;5.00;;
22924;SDS011;11628;51.072;3.712;2023-04-24T08:19:28;10.65;;;4.70;;
22924;SDS011;11628;51.072;3.712;2023-04-24T08:21:54;13.18;;;5.78;;
22924;SDS011;11628;51.072;3.712;2023-04-24T08:24:20;12.25;;;5.95;;
22924;SDS011;11628;51.072;3.712;2023-04-24T08:26:45;12.43;;;4.90;;
22924;SDS011;11628;51.072;3.712;2023-04-24T08:29:14;8.63;;;4.45;;
22924;SDS011;11628;51.072;3.712;2023-04-24T08:31:40;15.88;;;4.80;;
22924;SDS011;11628;51.072;3.712;2023-04-24T08:34:05;10.55;;;3.83;;
22924;SDS011;11628;51.072;3.712;2023-04-24T08:36:31;12.43;;;4.63;;
22924;SDS011;11628;51.072;3.712;2023-04-24T08:38:57;10.23;;;4.07;;
22924;SDS011;11628;51.072;3.712;2023-04-24T08:41:23;11.85;;;4.25;;
22924;SDS011;11628;51.072;3.712;2023-04-24T08:43:51;7.43;;;3.33;;
22924;SDS011;11628;51.072;3.712;2023-04-24T08:46:17;8.30;;;3.80;;
22924;SDS011;11628;51.072;3.712;2023-04-24T08:48:45;7.90;;;3.85;;
22924;SDS011;11628;51.072;3.712;2023-04-24T08:51:11;9.25;;;3.78;;
22924;SDS011;11628;51.072;3.712;2023-04-24T08:53:36;12.02;;;4.03;;
22924;SDS011;11628;51.072;3.712;2023-04-24T08:56:02;13.70;;;4.40;;
22924;SDS011;11628;51.072;3.712;2023-04-24T08:58:28;9.40;;;4.25;;
22924;SDS011;11628;51.072;3.712;2023-04-24T09:00:55;9.48;;;4.10;;
22924;SDS011;11628;51.072;3.712;2023-04-24T09:03:22;8.32;;;4.43;;
22924;SDS011;11628;51.072;3.712;2023-04-24T09:05:48;7.65;;;4.15;;
22924;SDS011;11628;51.072;3.712;2023-04-24T09:08:16;11.23;;;4.15;;
22924;SDS011;11628;51.072;3.712;2023-04-24T09:10:43;12.40;;;4.68;;
22924;SDS011;11628;51.072;3.712;2023-04-24T09:13:09;12.05;;;5.28;;
22924;SDS011;11628;51.072;3.712;2023-04-24T09:15:39;9.27;;;4.47;;
22924;SDS011;11628;51.072;3.712;2023-04-24T09:18:05;7.22;;;3.80;;
22924;SDS011;11628;51.072;3.712;2023-04-24T09:20:31;8.63;;;4.25;;
22924;SDS011;11628;51.072;3.712;2023-04-24T09:22:58;9.30;;;4.55;;
22924;SDS011;11628;51.072;3.712;2023-04-24T09:25:33;10.27;;;4.22;;
22924;SDS011;11628;51.072;3.712;2023-04-24T09:28:03;9.05;;;4.25;;
22924;SDS011;11628;51.072;3.712;2023-04-24T09:30:31;11.60;;;4.75;;
22924;SDS011;11628;51.072;3.712;2023-04-24T09:35:55;9.02;;;3.67;;
22924;SDS011;11628;51.072;3.712;2023-04-24T09:38:34;8.13;;;4.07;;
22924;SDS011;11628;51.072;3.712;2023-04-24T09:41:07;14.40;;;3.92;;
22924;SDS011;11628;51.072;3.712;2023-04-24T09:43:38;7.53;;;3.75;;
22924;SDS011;11628;51.072;3.712;2023-04-24T09:46:07;7.82;;;3.75;;
22924;SDS011;11628;51.072;3.712;2023-04-24T09:48:37;12.27;;;4.03;;
22924;SDS011;11628;51.072;3.712;2023-04-24T09:51:04;11.30;;;4.20;;
22924;SDS011;11628;51.072;3.712;2023-04-24T09:53:36;8.05;;;3.92;;
22924;SDS011;11628;51.072;3.712;2023-04-24T09:56:03;10.68;;;4.20;;
22924;SDS011;11628;51.072;3.712;2023-04-24T09:58:35;6.43;;;3.75;;
22924;SDS011;11628;51.072;3.712;2023-04-24T10:01:01;9.73;;;4.45;;
22924;SDS011;11628;51.072;3.712;2023-04-24T10:03:32;8.00;;;4.00;;
22924;SDS011;11628;51.072;3.712;2023-04-24T10:05:59;7.78;;;4.13;;
22924;SDS011;11628;51.072;3.712;2023-04-24T10:08:26;9.25;;;4.07;;
22924;SDS011;11628;51.072;3.712;2023-04-24T10:10:57;7.40;;;3.53;;
22924;SDS011;11628;51.072;3.712;2023-04-24T10:13:24;9.32;;;3.85;;
22924;SDS011;11628;51.072;3.712;2023-04-24T10:15:50;10.52;;;4.22;;
22924;SDS011;11628;51.072;3.712;2023-04-24T10:18:16;11.45;;;4.00;;
22924;SDS011;11628;51.072;3.712;2023-04-24T10:20:43;7.78;;;3.97;;
22924;SDS011;11628;51.072;3.712;2023-04-24T10:23:10;9.20;;;4.35;;
22924;SDS011;11628;51.072;3.712;2023-04-24T10:25:37;7.53;;;3.72;;
22924;SDS011;11628;51.072;3.712;2023-04-24T10:28:03;7.13;;;4.07;;
22924;SDS011;11628;51.072;3.712;2023-04-24T10:30:30;11.10;;;4.30;;
22924;SDS011;11628;51.072;3.712;2023-04-24T10:33:00;6.47;;;3.63;;
22924;SDS011;11628;51.072;3.712;2023-04-24T10:35:30;7.65;;;3.53;;
22924;SDS011;11628;51.072;3.712;2023-04-24T10:37:59;8.07;;;3.90;;
22924;SDS011;11628;51.072;3.712;2023-04-24T10:40:27;5.93;;;3.50;;
22924;SDS011;11628;51.072;3.712;2023-04-24T10:42:59;7.35;;;3.42;;
22924;SDS011;11628;51.072;3.712;2023-04-24T10:45:27;6.95;;;3.00;;
22924;SDS011;11628;51.072;3.712;2023-04-24T10:47:56;6.80;;;3.30;;
22924;SDS011;11628;51.072;3.712;2023-04-24T10:50:27;4.45;;;2.58;;
22924;SDS011;11628;51.072;3.712;2023-04-24T10:53:04;6.05;;;3.13;;
22924;SDS011;11628;51.072;3.712;2023-04-24T10:55:42;4.53;;;2.95;;
22924;SDS011;11628;51.072;3.712;2023-04-24T10:58:09;5.18;;;2.80;;
22924;SDS011;11628;51.072;3.712;2023-04-24T11:00:36;6.03;;;2.65;;
22924;SDS011;11628;51.072;3.712;2023-04-24T11:03:22;4.05;;;2.33;;
22924;SDS011;11628;51.072;3.712;2023-04-24T11:08:23;7.07;;;3.90;;
22924;SDS011;11628;51.072;3.712;2023-04-24T11:11:24;5.45;;;2.78;;
22924;SDS011;11628;51.072;3.712;2023-04-24T11:21:46;7.00;;;2.78;;
22924;SDS011;11628;51.072;3.712;2023-04-24T11:26:57;5.38;;;3.22;;
22924;SDS011;11628;51.072;3.712;2023-04-24T11:32:27;6.70;;;3.08;;
22924;SDS011;11628;51.072;3.712;2023-04-24T11:35:00;6.05;;;2.72;;
22924;SDS011;11628;51.072;3.712;2023-04-24T11:37:28;5.57;;;2.72;;
22924;SDS011;11628;51.072;3.712;2023-04-24T11:40:07;4.80;;;2.65;;
22924;SDS011;11628;51.072;3.712;2023-04-24T11:42:34;4.18;;;2.40;;
22924;SDS011;11628;51.072;3.712;2023-04-24T11:45:07;7.60;;;3.15;;
22924;SDS011;11628;51.072;3.712;2023-04-24T11:47:42;4.38;;;2.30;;
22924;SDS011;11628;51.072;3.712;2023-04-24T11:50:13;5.85;;;2.10;;
22924;SDS011;11628;51.072;3.712;2023-04-24T11:52:41;6.32;;;2.20;;
22924;SDS011;11628;51.072;3.712;2023-04-24T11:57:59;6.85;;;2.75;;
22924;SDS011;11628;51.072;3.712;2023-04-24T12:00:29;6.43;;;2.53;;
22924;SDS011;11628;51.072;3.712;2023-04-24T12:03:04;5.68;;;2.30;;
22924;SDS011;11628;51.072;3.712;2023-04-24T12:05:34;3.45;;;1.65;;
22924;SDS011;11628;51.072;3.712;2023-04-24T12:08:01;5.43;;;2.08;;
22924;SDS011;11628;51.072;3.712;2023-04-24T12:10:28;4.40;;;1.90;;
22924;SDS011;11628;51.072;3.712;2023-04-24T12:12:56;4.85;;;1.92;;
22924;SDS011;11628;51.072;3.712;2023-04-24T12:15:25;5.50;;;2.08;;
22924;SDS011;11628;51.072;3.712;2023-04-24T12:17:53;3.85;;;1.83;;
22924;SDS011;11628;51.072;3.712;2023-04-24T12:20:23;6.18;;;1.73;;
22924;SDS011;11628;51.072;3.712;2023-04-24T12:22:55;4.00;;;1.50;;
22924;SDS011;11628;51.072;3.712;2023-04-24T12:25:24;3.20;;;1.30;;
22924;SDS011;11628;51.072;3.712;2023-04-24T12:27:55;4.70;;;3.15;;
22924;SDS011;11628;51.072;3.712;2023-04-24T12:30:27;5.07;;;1.70;;
22924;SDS011;11628;51.072;3.712;2023-04-24T12:32:57;5.53;;;1.42;;
22924;SDS011;11628;51.072;3.712;2023-04-24T12:35:25;6.32;;;1.50;;
22924;SDS011;11628;51.072;3.712;2023-04-24T12:37:55;3.30;;;1.75;;
22924;SDS011;11628;51.072;3.712;2023-04-24T12:40:21;4.82;;;1.98;;
22924;SDS011;11628;51.072;3.712;2023-04-24T12:42:51;3.95;;;1.30;;
22924;SDS011;11628;51.072;3.712;2023-04-24T12:45:18;4.43;;;1.67;;
22924;SDS011;11628;51.072;3.712;2023-04-24T12:47:44;5.30;;;1.88;;
22924;SDS011;11628;51.072;3.712;2023-04-24T12:50:14;3.42;;;1.10;;
22924;SDS011;11628;51.072;3.712;2023-04-24T12:52:41;7.28;;;1.55;;
22924;SDS011;11628;51.072;3.712;2023-04-24T12:55:10;3.95;;;1.15;;
22924;SDS011;11628;51.072;3.712;2023-04-24T12:57:41;4.30;;;1.25;;
22924;SDS011;11628;51.072;3.712;2023-04-24T13:00:07;4.03;;;1.20;;
22924;SDS011;11628;51.072;3.712;2023-04-24T13:02:33;4.10;;;1.00;;
22924;SDS011;11628;51.072;3.712;2023-04-24T13:05:02;5.03;;;1.40;;
22924;SDS011;11628;51.072;3.712;2023-04-24T13:07:28;3.03;;;1.00;;
22924;SDS011;11628;51.072;3.712;2023-04-24T13:09:55;4.53;;;1.35;;
22924;SDS011;11628;51.072;3.712;2023-04-24T13:12:24;4.20;;;1.10;;
22924;SDS011;11628;51.072;3.712;2023-04-24T13:14:50;5.72;;;1.60;;
22924;SDS011;11628;51.072;3.712;2023-04-24T13:17:16;4.00;;;1.80;;
22924;SDS011;11628;51.072;3.712;2023-04-24T13:19:43;2.05;;;1.00;;
22924;SDS011;11628;51.072;3.712;2023-04-24T13:22:10;4.45;;;1.80;;
22924;SDS011;11628;51.072;3.712;2023-04-24T13:24:38;4.45;;;1.10;;
22924;SDS011;11628;51.072;3.712;2023-04-24T13:27:07;2.85;;;1.05;;
22924;SDS011;11628;51.072;3.712;2023-04-24T13:29:36;2.35;;;0.90;;
22924;SDS011;11628;51.072;3.712;2023-04-24T13:32:05;2.40;;;0.90;;
22924;SDS011;11628;51.072;3.712;2023-04-24T13:34:32;2.88;;;0.75;;
22924;SDS011;11628;51.072;3.712;2023-04-24T13:36:59;3.28;;;0.70;;
22924;SDS011;11628;51.072;3.712;2023-04-24T13:39:25;4.65;;;1.33;;
22924;SDS011;11628;51.072;3.712;2023-04-24T13:41:54;3.78;;;1.10;;
22924;SDS011;11628;51.072;3.712;2023-04-24T13:44:20;3.03;;;1.45;;
22924;SDS011;11628;51.072;3.712;2023-04-24T13:46:48;3.17;;;1.00;;
22924;SDS011;11628;51.072;3.712;2023-04-24T13:49:15;3.40;;;1.27;;
22924;SDS011;11628;51.072;3.712;2023-04-24T13:51:46;3.95;;;0.98;;
22924;SDS011;11628;51.072;3.712;2023-04-24T13:54:15;3.90;;;0.90;;
22924;SDS011;11628;51.072;3.712;2023-04-24T13:56:44;3.15;;;1.73;;
22924;SDS011;11628;51.072;3.712;2023-04-24T13:59:11;11.50;;;5.95;;
22924;SDS011;11628;51.072;3.712;2023-04-24T14:01:42;5.47;;;1.65;;
22924;SDS011;11628;51.072;3.712;2023-04-24T14:04:09;4.22;;;1.90;;
22924;SDS011;11628;51.072;3.712;2023-04-24T14:06:38;4.78;;;1.15;;
22924;SDS011;11628;51.072;3.712;2023-04-24T14:09:04;2.33;;;0.80;;
22924;SDS011;11628;51.072;3.712;2023-04-24T14:11:33;4.30;;;1.42;;
22924;SDS011;11628;51.072;3.712;2023-04-24T14:14:00;3.03;;;1.10;;
22924;SDS011;11628;51.072;3.712;2023-04-24T14:16:28;7.57;;;1.52;;
22924;SDS011;11628;51.072;3.712;2023-04-24T14:18:55;4.18;;;1.38;;
22924;SDS011;11628;51.072;3.712;2023-04-24T14:21:23;3.25;;;0.88;;
22924;SDS011;11628;51.072;3.712;2023-04-24T14:23:50;2.85;;;0.90;;
22924;SDS011;11628;51.072;3.712;2023-04-24T14:26:15;2.60;;;0.85;;
22924;SDS011;11628;51.072;3.712;2023-04-24T14:28:44;3.97;;;1.05;;
22924;SDS011;11628;51.072;3.712;2023-04-24T14:31:15;2.00;;;1.05;;
22924;SDS011;11628;51.072;3.712;2023-04-24T14:33:41;3.28;;;1.90;;
22924;SDS011;11628;51.072;3.712;2023-04-24T14:36:07;3.00;;;1.33;;
22924;SDS011;11628;51.072;3.712;2023-04-24T14:38:35;3.50;;;1.05;;
22924;SDS011;11628;51.072;3.712;2023-04-24T14:41:06;3.22;;;1.35;;
22924;SDS011;11628;51.072;3.712;2023-04-24T14:43:35;5.07;;;1.13;;
22924;SDS011;11628;51.072;3.712;2023-04-24T14:46:02;12.88;;;1.77;;
22924;SDS011;11628;51.072;3.712;2023-04-24T14:48:31;4.72;;;1.35;;
22924;SDS011;11628;51.072;3.712;2023-04-24T14:53:28;5.72;;;1.40;;
22924;SDS011;11628;51.072;3.712;2023-04-24T14:55:54;2.53;;;1.48;;
22924;SDS011;11628;51.072;3.712;2023-04-24T14:58:20;6.07;;;1.67;;